CheckWX is a tool to help pilots better visualize weather data.  It is not intended as a substitute for an official pre-flight weather briefing.

18:14:45 UTC

KJDN METAR
Jordan Airport
Jordan, Montana, USA
Current

27 mins ago

KJDN 241748Z AUTO 33005KT 14/04 A2991 RMK AO1 SLP130 T01390044 10144 20050 50002
Observed
Apr-24 @ 17:48 UTC
Wind
  • 330° at 5 KTS
Visibility
Temperature
14°C / 57°F
Dewpoint
C / 39°F
Humidity
51%
Altimeter
29.91" Hg
Pressure
1012.92 hPa
Previous

1 hour ago

KJDN 241648Z AUTO 33006KT 13/03 A2991 RMK AO1 SLP135 T01330033
Observed
Apr-24 @ 16:48 UTC
Wind
  • 330° at 6 KTS
Visibility
Temperature
13°C / 55°F
Dewpoint
C / 37°F
Humidity
51%
Altimeter
29.91" Hg
Pressure
1012.92 hPa
Previous

2 hours ago

KJDN 241548Z AUTO 32009KT 13/03 A2991 RMK AO1 SLP132 T01330033
Observed
Apr-24 @ 15:48 UTC
Wind
  • 320° at 9 KTS
Visibility
Temperature
13°C / 55°F
Dewpoint
C / 37°F
Humidity
51%
Altimeter
29.91" Hg
Pressure
1012.92 hPa